Time;durP1;ratioP1;P1;durP2;ratioP2;P2;SDS_P1;SDS_P2;PMS_P1;PMS_P2;Temp;Humidity;BMP_temperature;BMP_pressure;BME280_temperature;BME280_humidity;BME280_pressure;Samples;Min_cycle;Max_cycle;Signal;HPM_P1;HPM_P2
2022/04/04 00:01:09;;;;;;;25.05;13.38;;;;;;;-0.42;100.00;101819.38;5061634;28;20025;-65
2022/04/04 00:03:35;;;;;;;25.02;14.13;;;;;;;-0.39;100.00;101810.06;5062337;28;20029;-74
2022/04/04 00:06:00;;;;;;;25.85;14.23;;;;;;;-0.41;100.00;101816.88;5063337;28;20048;-64
2022/04/04 00:08:25;;;;;;;25.80;14.07;;;;;;;-0.44;100.00;101807.94;5060578;28;20114;-64
2022/04/04 00:10:51;;;;;;;26.35;14.40;;;;;;;-0.47;100.00;101811.25;5063557;28;20082;-65
2022/04/04 00:13:17;;;;;;;25.17;14.48;;;;;;;-0.45;100.00;101804.47;5060800;28;20028;-64
2022/04/04 00:15:42;;;;;;;25.50;15.32;;;;;;;-0.44;100.00;101797.56;5062509;28;20032;-65
2022/04/04 00:18:12;;;;;;;26.08;15.57;;;;;;;-0.45;100.00;101794.06;5064208;28;20028;-74
2022/04/04 00:20:39;;;;;;;27.08;15.20;;;;;;;-0.47;100.00;101795.66;5065465;28;20422;-64
2022/04/04 00:23:05;;;;;;;24.92;14.30;;;;;;;-0.44;100.00;101794.97;5066789;28;20119;-63
2022/04/04 00:25:31;;;;;;;25.38;14.75;;;;;;;-0.46;100.00;101789.66;5064372;28;20036;-63
2022/04/04 00:27:56;;;;;;;26.02;15.15;;;;;;;-0.44;100.00;101782.84;5066959;28;20028;-64
2022/04/04 00:30:22;;;;;;;25.45;14.10;;;;;;;-0.44;100.00;101780.25;5063887;28;20079;-65
2022/04/04 00:32:47;;;;;;;25.98;14.52;;;;;;;-0.42;100.00;101781.28;5066142;28;20387;-63
2022/04/04 00:35:12;;;;;;;26.30;14.48;;;;;;;-0.44;100.00;101782.84;5064774;28;20024;-63
2022/04/04 00:37:38;;;;;;;28.17;15.10;;;;;;;-0.42;100.00;101772.59;5065160;28;20025;-63
2022/04/04 00:40:07;;;;;;;27.45;16.27;;;;;;;-0.45;100.00;101770.69;5065022;28;20023;-62
2022/04/04 00:42:33;;;;;;;26.17;14.55;;;;;;;-0.49;100.00;101765.22;5065041;28;20119;-62
2022/04/04 00:44:58;;;;;;;26.33;15.60;;;;;;;-0.52;100.00;101765.91;5066239;28;20111;-61
2022/04/04 00:47:23;;;;;;;25.65;15.15;;;;;;;-0.50;100.00;101759.09;5063779;28;20100;-63
2022/04/04 00:49:49;;;;;;;25.65;15.18;;;;;;;-0.49;100.00;101754.81;5066659;28;20436;-62
2022/04/04 00:52:15;;;;;;;26.15;15.07;;;;;;;-0.51;100.00;101754.72;5063291;28;20107;-62
2022/04/04 00:54:40;;;;;;;26.17;15.43;;;;;;;-0.54;100.00;101751.91;5065033;28;20480;-62
2022/04/04 00:57:06;;;;;;;25.83;15.13;;;;;;;-0.49;100.00;101755.69;5066270;28;20111;-62
2022/04/04 00:59:33;;;;;;;26.38;15.55;;;;;;;-0.49;100.00;101734.91;5064361;28;20111;-63
2022/04/04 01:01:59;;;;;;;26.75;15.38;;;;;;;-0.46;100.00;101732.50;5064960;28;20028;-63
2022/04/04 01:04:24;;;;;;;26.63;15.73;;;;;;;-0.49;100.00;101739.22;5065489;28;20145;-63
2022/04/04 01:06:50;;;;;;;26.90;15.23;;;;;;;-0.48;100.00;101731.53;5063971;28;20356;-62
2022/04/04 01:09:16;;;;;;;27.33;16.33;;;;;;;-0.46;100.00;101729.03;5066547;28;20470;-63
2022/04/04 01:12:00;;;;;;;25.77;14.77;;;;;;;-0.37;100.00;101716.59;5063269;28;20104;-63
2022/04/04 01:14:26;;;;;;;26.83;15.32;;;;;;;-0.44;100.00;101717.91;5062728;28;20119;-63
2022/04/04 01:16:51;;;;;;;26.35;14.80;;;;;;;-0.30;100.00;101715.31;5065429;28;20158;-63
2022/04/04 01:19:16;;;;;;;26.30;15.98;;;;;;;-0.41;100.00;101712.94;5062762;28;20025;-63
2022/04/04 01:21:41;;;;;;;26.88;15.60;;;;;;;-0.43;100.00;101708.44;5066395;28;20485;-63
2022/04/04 01:24:15;;;;;;;27.90;15.98;;;;;;;-0.42;100.00;101695.53;5063142;28;20040;-63
2022/04/04 01:26:45;;;;;;;25.00;14.75;;;;;;;-0.36;100.00;101698.50;5058775;28;20028;-63
2022/04/04 01:29:10;;;;;;;26.30;15.13;;;;;;;-0.33;100.00;101679.63;5057599;28;20085;-62
2022/04/04 01:31:36;;;;;;;25.65;14.27;;;;;;;-0.29;100.00;101683.28;5065514;28;20099;-63
2022/04/04 01:34:02;;;;;;;25.73;14.30;;;;;;;-0.27;100.00;101680.00;5063784;28;20032;-63
2022/04/04 01:36:27;;;;;;;26.42;15.43;;;;;;;-0.24;100.00;101679.28;5064245;28;20471;-63
2022/04/04 01:38:52;;;;;;;24.98;14.95;;;;;;;-0.24;100.00;101668.88;5065125;28;20089;-63
2022/04/04 01:41:17;;;;;;;25.05;14.00;;;;;;;-0.19;100.00;101667.44;5063155;28;20032;-63
2022/04/04 01:43:43;;;;;;;26.85;14.88;;;;;;;-0.22;100.00;101664.66;5065731;28;20024;-62
2022/04/04 01:46:27;;;;;;;25.83;14.65;;;;;;;-0.23;100.00;101662.91;5062225;28;20483;-63
2022/04/04 01:48:57;;;;;;;24.65;14.00;;;;;;;-0.15;100.00;101661.63;5061906;28;20429;-63
2022/04/04 01:51:23;;;;;;;25.45;14.40;;;;;;;-0.12;100.00;101648.81;5063829;28;20123;-63
2022/04/04 01:53:49;;;;;;;26.17;15.20;;;;;;;-0.08;100.00;101639.53;5063758;28;20120;-65
2022/04/04 01:56:15;;;;;;;25.80;14.27;;;;;;;-0.17;100.00;101634.69;5064220;28;20032;-73
2022/04/04 01:58:41;;;;;;;25.13;14.00;;;;;;;-0.18;100.00;101635.47;5062922;28;20032;-72
2022/04/04 02:01:12;;;;;;;25.02;14.35;;;;;;;-0.19;100.00;101633.66;5065298;28;20093;-71
2022/04/04 02:03:38;;;;;;;27.40;15.07;;;;;;;-0.22;100.00;101624.00;5062203;28;20025;-70
2022/04/04 02:06:04;;;;;;;25.30;14.52;;;;;;;-0.21;100.00;101622.28;5065565;28;20499;-72
2022/04/04 02:08:31;;;;;;;25.75;14.35;;;;;;;-0.18;100.00;101618.16;5062463;28;20033;-71
2022/04/04 02:10:57;;;;;;;25.92;14.27;;;;;;;-0.19;100.00;101612.88;5064872;28;20028;-67
2022/04/04 02:13:25;;;;;;;25.92;14.60;;;;;;;-0.18;100.00;101612.06;5062690;28;20035;-70
2022/04/04 02:15:52;;;;;;;26.15;14.48;;;;;;;-0.14;100.00;101598.47;5063699;28;20080;-69
2022/04/04 02:18:17;;;;;;;24.73;14.05;;;;;;;-0.10;100.00;101604.72;5062420;28;20086;-68
2022/04/04 02:20:42;;;;;;;25.98;13.88;;;;;;;-0.06;100.00;101605.03;5063660;28;20479;-72
2022/04/04 02:23:08;;;;;;;24.20;12.85;;;;;;;0.07;100.00;101597.94;5063808;28;20051;-71
2022/04/04 02:25:34;;;;;;;24.40;12.88;;;;;;;0.09;100.00;101588.53;5062379;28;20130;-72
2022/04/04 02:27:59;;;;;;;24.35;13.10;;;;;;;0.11;100.00;101590.41;5064622;28;20028;-72
2022/04/04 02:30:24;;;;;;;24.13;13.10;;;;;;;0.10;100.00;101579.91;5061877;28;20370;-64
2022/04/04 02:32:50;;;;;;;25.52;12.55;;;;;;;0.11;100.00;101579.13;5064148;28;20033;-70
2022/04/04 02:35:16;;;;;;;24.23;13.18;;;;;;;0.15;100.00;101570.69;5062575;28;20070;-70
2022/04/04 02:37:43;;;;;;;23.92;13.05;;;;;;;0.18;100.00;101565.66;5063186;28;20434;-68
2022/04/04 02:40:09;;;;;;;24.40;12.70;;;;;;;0.20;100.00;101563.16;5063307;28;20436;-72
2022/04/04 02:42:35;;;;;;;25.25;12.50;;;;;;;0.27;100.00;101565.31;5062031;28;20032;-68
2022/04/04 02:45:00;;;;;;;22.30;11.65;;;;;;;0.26;100.00;101556.63;5064433;28;20101;-72
2022/04/04 02:47:26;;;;;;;23.88;12.45;;;;;;;0.24;100.00;101553.00;5061048;28;20025;-63
2022/04/04 02:49:51;;;;;;;24.08;12.65;;;;;;;0.22;100.00;101540.72;5064269;28;20063;-63
2022/04/04 02:52:16;;;;;;;24.92;12.82;;;;;;;0.29;100.00;101538.56;5061923;28;20074;-64
2022/04/04 02:54:42;;;;;;;24.75;12.88;;;;;;;0.34;100.00;101534.50;5061974;28;20036;-64
2022/04/04 02:57:08;;;;;;;23.70;12.32;;;;;;;0.32;100.00;101530.03;5063159;28;20029;-63
2022/04/04 02:59:33;;;;;;;24.73;12.98;;;;;;;0.33;100.00;101530.13;5063399;28;20028;-63
2022/04/04 03:01:59;;;;;;;24.35;12.00;;;;;;;0.42;100.00;101518.44;5061697;28;20025;-63
2022/04/04 03:04:24;;;;;;;24.25;12.10;;;;;;;0.41;100.00;101524.44;5064486;28;20421;-64
2022/04/04 03:06:49;;;;;;;23.50;12.32;;;;;;;0.44;100.00;101511.66;5061154;28;20025;-63
2022/04/04 03:09:15;;;;;;;23.35;11.55;;;;;;;0.51;100.00;101514.66;5063759;28;20033;-64
2022/04/04 03:11:40;;;;;;;23.90;12.30;;;;;;;0.55;100.00;101507.03;5062185;28;20029;-63
2022/04/04 03:14:06;;;;;;;23.75;11.70;;;;;;;0.54;100.00;101498.34;5062553;28;20025;-63
2022/04/04 03:16:31;;;;;;;24.13;11.75;;;;;;;0.56;100.00;101494.09;5063058;28;20025;-63
2022/04/04 03:18:58;;;;;;;23.95;12.20;;;;;;;0.56;100.00;101490.63;5064229;28;20093;-63
2022/04/04 03:21:27;;;;;;;23.92;12.00;;;;;;;0.53;100.00;101478.31;5043644;28;20066;-63
2022/04/04 03:23:54;;;;;;;23.40;12.05;;;;;;;0.61;100.00;101478.72;5064134;28;20036;-62
2022/04/04 03:26:19;;;;;;;22.90;11.75;;;;;;;0.57;100.00;101475.06;5061036;28;20033;-63
2022/04/04 03:28:46;;;;;;;23.90;12.05;;;;;;;0.62;100.00;101476.22;5064166;28;20035;-63
2022/04/04 03:31:12;;;;;;;23.70;11.98;;;;;;;0.58;100.00;101466.44;5060911;28;20064;-63
2022/04/04 03:33:37;;;;;;;24.13;12.25;;;;;;;0.58;100.00;101462.94;5063221;28;20036;-67
2022/04/04 03:36:04;;;;;;;23.98;11.77;;;;;;;0.66;100.00;101454.75;5062343;28;20025;-72
2022/04/04 03:38:30;;;;;;;23.38;11.10;;;;;;;0.71;100.00;101464.53;5062235;28;20108;-69
2022/04/04 03:40:55;;;;;;;23.45;11.35;;;;;;;0.71;100.00;101449.78;5063647;28;20037;-68
2022/04/04 03:43:22;;;;;;;23.60;11.98;;;;;;;0.76;100.00;101437.94;5061240;28;20134;-72
2022/04/04 03:45:47;;;;;;;24.00;12.55;;;;;;;0.75;100.00;101430.94;5064430;28;20021;-73
2022/04/04 03:48:13;;;;;;;23.42;11.98;;;;;;;0.78;100.00;101438.00;5060719;28;20078;-67
2022/04/04 03:50:39;;;;;;;24.58;12.07;;;;;;;0.80;100.00;101433.78;5063108;28;20033;-67
2022/04/04 03:53:05;;;;;;;22.95;12.00;;;;;;;0.80;100.00;101431.16;5064269;28;20036;-71
2022/04/04 03:55:39;;;;;;;23.25;11.48;;;;;;;0.84;100.00;101412.31;5068904;28;20040;-70
2022/04/04 03:58:08;;;;;;;24.30;12.50;;;;;;;0.90;100.00;101417.81;5064511;28;20476;-69
2022/04/04 04:00:34;;;;;;;23.48;11.98;;;;;;;0.89;100.00;101428.16;5067579;28;20032;-70
2022/04/04 04:02:59;;;;;;;23.95;11.95;;;;;;;0.93;100.00;101410.16;5065304;28;20078;-73
2022/04/04 04:05:25;;;;;;;23.45;12.05;;;;;;;0.98;100.00;101411.31;5065931;28;20025;-67
2022/04/04 04:07:51;;;;;;;24.75;12.45;;;;;;;0.99;100.00;101409.59;5066392;28;20024;-64
2022/04/04 04:10:16;;;;;;;23.77;12.57;;;;;;;0.95;100.00;101395.53;5065179;28;20391;-62
2022/04/04 04:12:43;;;;;;;25.15;12.35;;;;;;;1.01;100.00;101400.19;5067423;28;20017;-64
2022/04/04 04:15:14;;;;;;;23.50;12.02;;;;;;;1.08;100.00;101389.25;5063944;28;20032;-62
2022/04/04 04:17:39;;;;;;;23.55;12.15;;;;;;;1.08;100.00;101393.56;5060441;28;20025;-62
2022/04/04 04:20:20;;;;;;;23.75;12.38;;;;;;;1.11;100.00;101385.94;5067401;28;20039;-65
2022/04/04 04:22:52;;;;;;;24.15;12.30;;;;;;;1.19;100.00;101363.75;5063051;28;20148;-69
2022/04/04 04:25:18;;;;;;;23.80;12.45;;;;;;;1.22;100.00;101374.31;5065660;28;20069;-66
2022/04/04 04:27:45;;;;;;;24.75;12.63;;;;;;;1.25;100.00;101376.19;5065056;28;20360;-67
2022/04/04 04:30:11;;;;;;;24.50;13.38;;;;;;;1.26;100.00;101365.84;5066561;28;20036;-66
2022/04/04 04:32:36;;;;;;;24.75;13.30;;;;;;;1.32;100.00;101360.06;5063611;28;20136;-74
2022/04/04 04:35:02;;;;;;;24.52;13.13;;;;;;;1.34;100.00;101348.00;5067339;28;20067;-75
2022/04/04 04:37:27;;;;;;;23.73;12.15;;;;;;;1.29;100.00;101345.16;5064399;28;20029;-66
2022/04/04 04:39:53;;;;;;;25.23;13.15;;;;;;;1.38;100.00;101348.25;5065666;28;20513;-68
2022/04/04 04:42:18;;;;;;;24.35;13.13;;;;;;;1.47;100.00;101333.88;5065550;28;20511;-65
2022/04/04 04:44:45;;;;;;;25.38;13.40;;;;;;;1.47;100.00;101328.66;5064279;28;20017;-70
2022/04/04 04:47:10;;;;;;;23.40;12.50;;;;;;;1.49;100.00;101316.63;5066460;28;20024;-69
2022/04/04 04:49:36;;;;;;;24.95;13.63;;;;;;;1.53;100.00;101313.31;5063596;28;20029;-72
2022/04/04 04:52:02;;;;;;;24.02;13.20;;;;;;;1.54;100.00;101317.72;5066523;28;20044;-69
2022/04/04 04:54:29;;;;;;;24.67;13.77;;;;;;;1.51;100.00;101318.44;5063325;28;20025;-67
2022/04/04 04:56:56;;;;;;;26.23;13.82;;;;;;;1.55;100.00;101314.28;5063840;28;20064;-67
2022/04/04 04:59:22;;;;;;;25.50;13.88;;;;;;;1.58;100.00;101314.44;5066067;28;20021;-72
2022/04/04 05:01:47;;;;;;;27.20;13.40;;;;;;;1.61;100.00;101309.38;5064424;28;20029;-72
2022/04/04 05:04:13;;;;;;;24.25;13.38;;;;;;;1.62;100.00;101303.34;5063241;28;20037;-63
2022/04/04 05:06:39;;;;;;;25.63;13.82;;;;;;;1.65;100.00;101300.00;5066040;28;20483;-63
2022/04/04 05:09:04;;;;;;;24.45;13.48;;;;;;;1.74;100.00;101296.09;5063577;28;20085;-63
2022/04/04 05:11:29;;;;;;;25.85;13.23;;;;;;;1.79;100.00;101314.59;5066378;28;20051;-63
2022/04/04 05:13:55;;;;;;;24.35;13.48;;;;;;;1.85;100.00;101280.97;5063459;28;20120;-65
2022/04/04 05:16:20;;;;;;;24.58;13.23;;;;;;;1.80;100.00;101285.06;5065299;28;20017;-62
2022/04/04 05:18:45;;;;;;;24.90;13.68;;;;;;;1.82;100.00;101273.03;5065241;28;20466;-63
2022/04/04 05:21:11;;;;;;;25.70;14.15;;;;;;;1.86;100.00;101264.50;5064090;28;20028;-63
2022/04/04 05:23:38;;;;;;;25.58;13.52;;;;;;;1.92;100.00;101263.88;5064478;28;20036;-66
2022/04/04 05:26:04;;;;;;;25.98;14.45;;;;;;;1.91;100.00;101262.13;5055796;28;20033;-64
2022/04/04 05:28:29;;;;;;;26.23;14.23;;;;;;;2.00;100.00;101240.78;5060917;28;20353;-62
2022/04/04 05:30:54;;;;;;;27.30;14.77;;;;;;;2.05;100.00;101245.41;5059962;28;20056;-63
2022/04/04 05:33:19;;;;;;;24.80;14.32;;;;;;;2.03;100.00;101240.94;5051780;28;20029;-63
2022/04/04 05:35:46;;;;;;;26.55;15.85;;;;;;;2.05;100.00;101234.03;5058111;28;20056;-63
2022/04/04 05:38:13;;;;;;;26.65;15.95;;;;;;;2.06;100.00;101254.09;5060141;28;20055;-63
2022/04/04 05:40:38;;;;;;;26.80;16.23;;;;;;;2.11;100.00;101233.44;5060661;28;20025;-62
2022/04/04 05:43:04;;;;;;;26.65;15.85;;;;;;;2.13;100.00;101231.81;5054321;28;20028;-62
2022/04/04 05:45:30;;;;;;;26.88;16.15;;;;;;;2.12;100.00;101225.69;5057278;28;20032;-62
2022/04/04 05:47:55;;;;;;;26.02;15.15;;;;;;;2.14;100.00;101225.75;5058340;28;20104;-63
2022/04/04 05:50:20;;;;;;;26.38;14.70;;;;;;;2.18;100.00;101225.94;5056990;28;20025;-72
2022/04/04 05:52:46;;;;;;;26.73;14.57;;;;;;;2.21;100.00;101215.66;5052170;28;20128;-69
2022/04/04 05:55:13;;;;;;;26.25;14.75;;;;;;;2.25;100.00;101208.84;5062338;28;20501;-66
2022/04/04 05:57:39;;;;;;;25.05;13.65;;;;;;;2.32;100.00;101205.69;5057573;28;20033;-63
2022/04/04 06:00:10;;;;;;;25.90;14.32;;;;;;;2.32;100.00;101207.41;5034738;28;20039;-62
2022/04/04 06:02:37;;;;;;;25.73;14.05;;;;;;;2.31;100.00;101206.50;5059347;28;20108;-63
2022/04/04 06:05:03;;;;;;;26.50;14.13;;;;;;;2.38;100.00;101165.94;5057877;28;20037;-63
2022/04/04 06:07:29;;;;;;;26.80;15.00;;;;;;;2.45;100.00;101196.69;5056011;28;20024;-62
2022/04/04 06:09:54;;;;;;;24.92;13.88;;;;;;;2.54;100.00;101189.22;5055349;28;20435;-63
2022/04/04 06:12:19;;;;;;;25.25;14.30;;;;;;;2.55;100.00;101185.81;5058221;28;20028;-64
2022/04/04 06:14:44;;;;;;;26.20;14.07;;;;;;;2.61;100.00;101182.56;5051948;28;20068;-63
2022/04/04 06:17:10;;;;;;;27.30;14.13;;;;;;;2.64;100.00;101179.19;5051154;28;20056;-62
2022/04/04 06:19:35;;;;;;;27.10;15.02;;;;;;;2.69;100.00;101178.53;5053292;28;20409;-69
2022/04/04 06:22:05;;;;;;;24.77;14.73;;;;;;;2.75;100.00;101178.81;5050927;28;20459;-63
2022/04/04 06:24:31;;;;;;;26.92;14.80;;;;;;;2.77;100.00;101187.59;5057473;28;20025;-62
2022/04/04 06:26:57;;;;;;;26.60;14.73;;;;;;;2.83;100.00;101147.78;5052635;28;20032;-64
2022/04/04 06:29:22;;;;;;;25.88;14.77;;;;;;;2.86;100.00;101170.53;5061583;28;20025;-63
2022/04/04 06:31:48;;;;;;;25.25;14.63;;;;;;;2.93;100.00;101151.66;5054330;28;20475;-62
2022/04/04 06:34:13;;;;;;;26.35;15.40;;;;;;;2.97;100.00;101154.47;5056396;28;20028;-62
2022/04/04 06:36:38;;;;;;;27.35;15.38;;;;;;;3.01;100.00;101149.34;5056467;28;20103;-62
2022/04/04 06:39:05;;;;;;;26.75;15.50;;;;;;;3.13;100.00;101155.06;5032389;28;20064;-62
2022/04/04 06:41:31;;;;;;;26.05;14.65;;;;;;;3.22;100.00;101152.81;5033866;28;20021;-62
2022/04/04 06:43:58;;;;;;;27.05;14.90;;;;;;;3.29;100.00;101140.88;5058992;28;20040;-62
2022/04/04 06:46:23;;;;;;;24.98;14.20;;;;;;;3.36;100.00;101121.09;5036065;28;20467;-65
2022/04/04 06:48:50;;;;;;;25.90;13.82;;;;;;;3.39;100.00;101129.94;5035706;28;20082;-62
2022/04/04 06:51:15;;;;;;;26.08;14.27;;;;;;;3.34;100.00;101126.28;5058166;28;20499;-63
2022/04/04 06:53:40;;;;;;;26.02;14.38;;;;;;;3.38;100.00;101120.34;5057088;28;20029;-62
2022/04/04 06:56:06;;;;;;;26.23;13.65;;;;;;;3.48;100.00;101114.63;5057039;28;20024;-62
2022/04/04 06:58:31;;;;;;;24.42;14.43;;;;;;;3.53;100.00;101104.31;5055267;28;20075;-63
2022/04/04 07:00:57;;;;;;;24.98;14.15;;;;;;;3.63;100.00;101116.91;5033093;28;20036;-67
2022/04/04 07:03:23;;;;;;;26.02;13.95;;;;;;;3.71;100.00;101084.91;5058606;28;20401;-62
2022/04/04 07:05:48;;;;;;;25.50;13.88;;;;;;;3.78;100.00;101100.88;5057948;28;20021;-63
2022/04/04 07:08:13;;;;;;;25.77;14.07;;;;;;;3.82;100.00;101097.53;5050556;28;20033;-63
2022/04/04 07:10:39;;;;;;;26.63;13.98;;;;;;;3.92;100.00;101092.66;5057729;28;20029;-64
2022/04/04 07:13:05;;;;;;;25.13;13.30;;;;;;;3.98;100.00;101093.75;5055619;28;20032;-65
2022/04/04 07:15:30;;;;;;;25.10;13.63;;;;;;;3.96;100.00;101070.97;5057158;28;20037;-69
2022/04/04 07:17:56;;;;;;;26.88;14.07;;;;;;;3.95;100.00;101077.06;5057972;28;20463;-66
2022/04/04 07:20:21;;;;;;;25.00;13.90;;;;;;;4.04;100.00;101068.66;5033544;28;20087;-63
2022/04/04 07:22:47;;;;;;;25.70;14.18;;;;;;;4.04;100.00;101066.91;5057001;28;20053;-62
2022/04/04 07:25:14;;;;;;;24.98;12.95;;;;;;;4.10;100.00;101047.91;5057457;28;20074;-67
2022/04/04 07:27:40;;;;;;;24.73;12.93;;;;;;;4.14;100.00;101042.84;5051960;28;20116;-66
2022/04/04 07:30:06;;;;;;;24.48;12.80;;;;;;;4.10;100.00;101048.81;5061686;28;20021;-68
2022/04/04 07:32:35;;;;;;;27.25;13.50;;;;;;;4.17;100.00;101042.94;5060567;28;20033;-64
2022/04/04 07:35:00;;;;;;;26.60;13.60;;;;;;;4.24;100.00;101061.44;5061583;28;20378;-62
2022/04/04 07:37:26;;;;;;;24.50;13.35;;;;;;;4.29;100.00;101034.59;5056981;28;20029;-66
2022/04/04 07:39:51;;;;;;;24.25;12.80;;;;;;;4.37;100.00;101042.72;5056226;28;20475;-67
2022/04/04 07:42:17;;;;;;;27.95;14.10;;;;;;;4.34;100.00;101030.41;5058327;28;20047;-63
2022/04/04 07:44:43;;;;;;;23.90;12.35;;;;;;;4.34;100.00;101032.16;5059557;28;20554;-65
2022/04/04 07:47:08;;;;;;;23.90;13.07;;;;;;;4.34;100.00;101032.16;5058318;28;20056;-62
2022/04/04 07:49:34;;;;;;;25.23;13.73;;;;;;;4.34;100.00;101019.94;5057674;28;20028;-64
2022/04/04 07:51:59;;;;;;;26.80;14.35;;;;;;;4.22;100.00;101014.28;5057552;28;20176;-64
2022/04/04 07:54:24;;;;;;;25.33;13.80;;;;;;;4.32;100.00;101015.50;5059553;28;20120;-64
2022/04/04 07:56:53;;;;;;;25.25;13.55;;;;;;;4.46;100.00;100993.28;5062613;28;20344;-64
2022/04/04 07:59:19;;;;;;;24.98;13.70;;;;;;;4.48;100.00;101002.06;5037848;28;20041;-64
2022/04/04 08:01:44;;;;;;;25.17;13.63;;;;;;;4.65;100.00;100983.38;5059413;28;20040;-63
2022/04/04 08:04:10;;;;;;;24.40;13.77;;;;;;;4.75;100.00;100940.00;5060394;28;20024;-63
2022/04/04 08:06:35;;;;;;;25.73;13.27;;;;;;;4.87;100.00;100977.94;5056918;28;20025;-63
2022/04/04 08:09:01;;;;;;;24.27;13.35;;;;;;;5.01;100.00;100983.59;5058891;28;20024;-63
2022/04/04 08:11:26;;;;;;;24.13;13.50;;;;;;;5.17;100.00;100969.19;5060421;28;20413;-63
2022/04/04 08:13:52;;;;;;;24.17;12.48;;;;;;;5.26;100.00;100967.66;5063791;28;20032;-63
2022/04/04 08:16:17;;;;;;;24.45;12.75;;;;;;;5.29;100.00;100967.78;5065587;28;20112;-62
2022/04/04 08:18:43;;;;;;;23.15;12.10;;;;;;;5.35;100.00;100962.69;5066335;28;20020;-63
2022/04/04 08:21:08;;;;;;;24.52;11.98;;;;;;;5.38;100.00;100966.28;5064513;28;20120;-64
2022/04/04 08:23:34;;;;;;;25.13;12.00;;;;;;;5.48;100.00;100959.56;5067145;28;20024;-64
2022/04/04 08:25:59;;;;;;;22.52;11.27;;;;;;;5.52;100.00;100948.31;5063892;28;20029;-63
2022/04/04 08:28:25;;;;;;;23.73;12.07;;;;;;;5.60;100.00;100956.38;5066715;28;20485;-63
2022/04/04 08:30:51;;;;;;;23.60;11.30;;;;;;;5.64;100.00;100954.72;5064955;28;20029;-63
2022/04/04 08:33:18;;;;;;;23.27;11.32;;;;;;;5.71;100.00;100944.44;5065213;28;20021;-73
2022/04/04 08:35:45;;;;;;;24.38;11.27;;;;;;;5.79;100.00;100942.00;5062144;28;20100;-68
2022/04/04 08:38:10;;;;;;;23.20;10.90;;;;;;;5.81;100.00;100918.41;5067014;28;20025;-62
2022/04/04 08:40:37;;;;;;;22.73;10.57;;;;;;;5.96;100.00;100918.81;5066463;28;20055;-65
2022/04/04 08:43:03;;;;;;;23.10;10.82;;;;;;;6.00;100.00;100932.91;5063995;28;20495;-63
2022/04/04 08:45:29;;;;;;;23.42;11.25;;;;;;;6.07;100.00;100922.63;5067170;28;20409;-63
2022/04/04 08:47:55;;;;;;;24.10;10.85;;;;;;;6.03;100.00;100914.59;5063776;28;20033;-62
2022/04/04 08:50:21;;;;;;;24.38;11.32;;;;;;;6.10;100.00;100917.44;5066351;28;20074;-63
2022/04/04 08:52:47;;;;;;;24.52;10.98;;;;;;;6.04;100.00;100906.81;5064542;28;20083;-62
2022/04/04 08:55:15;;;;;;;24.38;11.18;;;;;;;5.94;100.00;100903.03;5065298;28;20065;-62
2022/04/04 08:57:41;;;;;;;23.30;11.07;;;;;;;5.92;100.00;100915.19;5065642;28;20037;-63
2022/04/04 09:00:10;;;;;;;26.10;11.68;;;;;;;5.91;100.00;100908.19;5064261;28;20434;-62
2022/04/04 09:02:36;;;;;;;25.13;11.55;;;;;;;5.88;100.00;100892.38;5066087;28;20043;-64
2022/04/04 09:05:05;;;;;;;25.30;12.15;;;;;;;5.71;100.00;100897.22;5063317;28;20033;-65
2022/04/04 09:07:30;;;;;;;22.65;11.75;;;;;;;5.62;100.00;100893.47;5048519;28;20041;-65
2022/04/04 09:09:56;;;;;;;25.58;12.90;;;;;;;5.61;100.00;100896.91;5059425;28;20025;-64
2022/04/04 09:12:26;;;;;;;24.83;12.50;;;;;;;5.51;100.00;100880.97;5066155;28;20024;-67
2022/04/04 09:14:54;;;;;;;24.42;12.27;;;;;;;5.47;100.00;100889.59;5063803;28;20037;-68
2022/04/04 09:17:25;;;;;;;24.50;12.70;;;;;;;5.46;100.00;100882.59;5065553;28;20472;-64
2022/04/04 09:19:51;;;;;;;26.80;12.68;;;;;;;5.48;100.00;100880.88;5063651;28;20033;-64
2022/04/04 09:22:19;;;;;;;24.17;12.48;;;;;;;5.43;100.00;100892.97;5047253;28;20086;-62
2022/04/04 09:24:49;;;;;;;24.15;12.40;;;;;;;5.45;100.00;100870.31;5061233;28;20185;-62
2022/04/04 09:27:26;;;;;;;26.77;13.27;;;;;;;5.44;100.00;100875.53;5057134;28;20060;-61
2022/04/04 09:29:57;;;;;;;24.85;13.52;;;;;;;5.38;100.00;100857.91;5052278;28;20073;-63
2022/04/04 09:32:35;;;;;;;25.10;13.25;;;;;;;5.27;100.00;100849.78;5052673;28;20052;-62
2022/04/04 09:35:08;;;;;;;25.27;13.90;;;;;;;4.97;100.00;100861.19;5054262;28;20051;-64
2022/04/04 09:37:35;;;;;;;26.10;13.80;;;;;;;4.89;100.00;100854.84;5031853;28;20423;-61
2022/04/04 09:40:06;;;;;;;26.08;14.65;;;;;;;4.66;100.00;100851.56;5057222;28;20357;-61
2022/04/04 09:42:32;;;;;;;26.95;15.50;;;;;;;4.57;100.00;100851.31;5053518;28;20086;-61
2022/04/04 09:45:09;;;;;;;25.52;15.27;;;;;;;4.53;100.00;100847.75;5060319;28;20048;-61
2022/04/04 09:47:52;;;;;;;27.70;16.20;;;;;;;4.32;100.00;100846.25;5061270;28;20104;-61
2022/04/04 09:50:37;;;;;;;26.50;15.40;;;;;;;4.35;100.00;100845.47;5055895;28;20024;-63
2022/04/04 09:53:08;;;;;;;27.08;15.82;;;;;;;4.34;100.00;100838.47;5054921;28;20037;-63
2022/04/04 09:55:37;;;;;;;26.38;15.65;;;;;;;4.39;100.00;100833.38;5051832;28;20052;-63
2022/04/04 09:58:06;;;;;;;26.45;16.35;;;;;;;4.33;100.00;100841.91;5057232;28;20032;-63
2022/04/04 10:00:34;;;;;;;28.27;16.08;;;;;;;4.33;100.00;100844.53;5036940;28;20021;-63
2022/04/04 10:02:59;;;;;;;28.92;17.17;;;;;;;4.27;100.00;100844.34;5053757;28;20107;-63
2022/04/04 10:05:26;;;;;;;27.73;17.20;;;;;;;4.26;100.00;100821.63;5058661;28;20119;-62
2022/04/04 10:07:55;;;;;;;27.42;16.98;;;;;;;4.25;100.00;100826.00;5055731;28;20020;-62
2022/04/04 10:10:22;;;;;;;27.63;17.58;;;;;;;4.25;100.00;100831.22;5054183;28;20036;-63
2022/04/04 10:12:49;;;;;;;27.75;17.08;;;;;;;4.30;100.00;100820.91;5055636;28;20021;-63
2022/04/04 10:15:14;;;;;;;28.75;16.80;;;;;;;4.32;100.00;100806.09;5057888;28;20464;-71
2022/04/04 10:17:40;;;;;;;28.88;17.35;;;;;;;4.19;100.00;100824.09;5065076;28;20039;-72
2022/04/04 10:20:06;;;;;;;29.30;18.27;;;;;;;4.22;100.00;100815.41;5061732;28;20033;-73
2022/04/04 10:22:33;;;;;;;29.92;17.85;;;;;;;4.23;100.00;100805.84;5064428;28;20052;-66
2022/04/04 10:25:02;;;;;;;29.13;18.98;;;;;;;4.17;100.00;100804.81;5063090;28;20020;-68
2022/04/04 10:27:28;;;;;;;29.30;18.27;;;;;;;4.13;100.00;100813.41;5063443;28;20452;-67
2022/04/04 10:30:04;;;;;;;30.05;19.73;;;;;;;4.16;100.00;100807.38;5045443;28;20075;-73
2022/04/04 10:32:31;;;;;;;29.45;19.80;;;;;;;4.12;100.00;100805.50;5063899;28;20032;-72
2022/04/04 10:34:57;;;;;;;31.33;19.80;;;;;;;4.18;100.00;100806.59;5044523;28;20119;-72
2022/04/04 10:37:28;;;;;;;30.45;19.55;;;;;;;4.13;100.00;100805.56;5062596;28;20124;-71
2022/04/04 10:39:55;;;;;;;30.63;21.48;;;;;;;4.15;100.00;100809.13;5063123;28;20020;-70
2022/04/04 10:42:25;;;;;;;32.33;18.60;;;;;;;4.21;100.00;100828.44;5062671;28;20375;-71
2022/04/04 10:44:58;;;;;;;31.02;20.75;;;;;;;4.14;100.00;100815.19;5063525;28;20389;-70
2022/04/04 10:47:25;;;;;;;32.85;22.55;;;;;;;4.08;100.00;100795.78;5062891;28;20356;-68
2022/04/04 10:49:51;;;;;;;32.22;21.20;;;;;;;4.03;100.00;100816.59;5063510;28;20577;-70
2022/04/04 10:52:36;;;;;;;33.78;22.73;;;;;;;4.01;100.00;100784.28;5061373;28;20120;-67
2022/04/04 10:55:27;;;;;;;33.97;24.80;;;;;;;3.96;100.00;100815.53;5061907;28;20066;-67
2022/04/04 10:58:09;;;;;;;33.58;23.60;;;;;;;3.93;100.00;100791.00;5060614;28;20035;-67
2022/04/04 11:00:53;;;;;;;34.33;23.27;;;;;;;3.98;100.00;100790.28;5061250;28;20029;-68
2022/04/04 11:03:35;;;;;;;33.83;23.40;;;;;;;4.04;100.00;100784.38;5059182;28;20086;-69
2022/04/04 11:09:00;;;;;;;31.98;22.38;;;;;;;3.96;100.00;100770.16;5061610;28;20065;-65